sensor_id;sensor_type;location;lat;lon;timestamp;P1;durP1;ratioP1;P2;durP2;ratioP2
81701;SDS011;71115;52.150;4.510;2023-10-19T00:00:48;21.40;;;17.13;;
81701;SDS011;71115;52.150;4.510;2023-10-19T00:03:15;26.55;;;15.65;;
81701;SDS011;71115;52.150;4.510;2023-10-19T00:05:43;22.70;;;12.85;;
81701;SDS011;71115;52.150;4.510;2023-10-19T00:08:13;29.98;;;16.63;;
81701;SDS011;71115;52.150;4.510;2023-10-19T00:10:39;17.50;;;10.60;;
81701;SDS011;71115;52.150;4.510;2023-10-19T00:13:08;16.35;;;10.55;;
81701;SDS011;71115;52.150;4.510;2023-10-19T00:15:34;19.15;;;12.35;;
81701;SDS011;71115;52.150;4.510;2023-10-19T00:18:05;23.30;;;13.93;;
81701;SDS011;71115;52.150;4.510;2023-10-19T00:20:44;14.05;;;9.52;;
81701;SDS011;71115;52.150;4.510;2023-10-19T00:23:10;17.55;;;11.25;;
81701;SDS011;71115;52.150;4.510;2023-10-19T00:25:38;15.15;;;8.93;;
81701;SDS011;71115;52.150;4.510;2023-10-19T00:28:06;17.75;;;10.90;;
81701;SDS011;71115;52.150;4.510;2023-10-19T00:30:33;11.27;;;7.15;;
81701;SDS011;71115;52.150;4.510;2023-10-19T00:33:01;24.27;;;15.02;;
81701;SDS011;71115;52.150;4.510;2023-10-19T00:35:40;21.98;;;11.75;;
81701;SDS011;71115;52.150;4.510;2023-10-19T00:38:15;24.58;;;14.35;;
81701;SDS011;71115;52.150;4.510;2023-10-19T00:40:53;15.02;;;9.52;;
81701;SDS011;71115;52.150;4.510;2023-10-19T00:43:27;20.95;;;13.38;;
81701;SDS011;71115;52.150;4.510;2023-10-19T00:48:22;16.83;;;9.48;;
81701;SDS011;71115;52.150;4.510;2023-10-19T00:50:51;12.90;;;8.02;;
81701;SDS011;71115;52.150;4.510;2023-10-19T00:53:19;16.77;;;13.02;;
81701;SDS011;71115;52.150;4.510;2023-10-19T00:55:45;22.50;;;12.65;;
81701;SDS011;71115;52.150;4.510;2023-10-19T00:58:11;22.77;;;14.73;;
81701;SDS011;71115;52.150;4.510;2023-10-19T01:00:43;12.57;;;8.13;;
81701;SDS011;71115;52.150;4.510;2023-10-19T01:03:10;16.27;;;10.65;;
81701;SDS011;71115;52.150;4.510;2023-10-19T01:05:41;17.92;;;11.15;;
81701;SDS011;71115;52.150;4.510;2023-10-19T01:08:13;20.67;;;12.98;;
81701;SDS011;71115;52.150;4.510;2023-10-19T01:10:57;16.05;;;10.13;;
81701;SDS011;71115;52.150;4.510;2023-10-19T01:13:24;14.90;;;9.18;;
81701;SDS011;71115;52.150;4.510;2023-10-19T01:15:59;19.67;;;9.95;;
81701;SDS011;71115;52.150;4.510;2023-10-19T01:18:25;24.98;;;13.55;;
81701;SDS011;71115;52.150;4.510;2023-10-19T01:20:57;21.38;;;12.13;;
81701;SDS011;71115;52.150;4.510;2023-10-19T01:23:32;19.20;;;10.95;;
81701;SDS011;71115;52.150;4.510;2023-10-19T01:26:00;23.70;;;14.50;;
81701;SDS011;71115;52.150;4.510;2023-10-19T01:28:36;20.27;;;11.80;;
81701;SDS011;71115;52.150;4.510;2023-10-19T01:31:22;16.83;;;10.77;;
81701;SDS011;71115;52.150;4.510;2023-10-19T01:33:54;27.65;;;16.02;;
81701;SDS011;71115;52.150;4.510;2023-10-19T01:36:22;30.50;;;15.27;;
81701;SDS011;71115;52.150;4.510;2023-10-19T01:38:48;26.08;;;15.18;;
81701;SDS011;71115;52.150;4.510;2023-10-19T01:41:14;17.92;;;10.35;;
81701;SDS011;71115;52.150;4.510;2023-10-19T01:43:44;25.13;;;15.45;;
81701;SDS011;71115;52.150;4.510;2023-10-19T01:46:11;26.60;;;13.93;;
81701;SDS011;71115;52.150;4.510;2023-10-19T01:51:05;20.50;;;12.68;;
81701;SDS011;71115;52.150;4.510;2023-10-19T01:55:59;15.48;;;9.23;;
81701;SDS011;71115;52.150;4.510;2023-10-19T01:58:25;22.50;;;14.57;;
81701;SDS011;71115;52.150;4.510;2023-10-19T02:00:52;24.25;;;14.98;;
81701;SDS011;71115;52.150;4.510;2023-10-19T02:03:25;21.55;;;14.20;;
81701;SDS011;71115;52.150;4.510;2023-10-19T02:05:59;23.23;;;12.10;;
81701;SDS011;71115;52.150;4.510;2023-10-19T02:08:31;22.35;;;13.70;;
81701;SDS011;71115;52.150;4.510;2023-10-19T02:10:57;21.67;;;12.10;;
81701;SDS011;71115;52.150;4.510;2023-10-19T02:13:27;20.58;;;11.85;;
81701;SDS011;71115;52.150;4.510;2023-10-19T02:15:56;21.38;;;11.57;;
81701;SDS011;71115;52.150;4.510;2023-10-19T02:18:22;23.50;;;10.98;;
81701;SDS011;71115;52.150;4.510;2023-10-19T02:20:48;15.27;;;7.85;;
81701;SDS011;71115;52.150;4.510;2023-10-19T02:23:17;18.17;;;7.68;;
81701;SDS011;71115;52.150;4.510;2023-10-19T02:25:43;15.73;;;6.72;;
81701;SDS011;71115;52.150;4.510;2023-10-19T02:28:09;15.80;;;6.28;;
81701;SDS011;71115;52.150;4.510;2023-10-19T02:30:36;11.63;;;4.63;;
81701;SDS011;71115;52.150;4.510;2023-10-19T02:33:05;11.10;;;2.55;;
81701;SDS011;71115;52.150;4.510;2023-10-19T02:35:32;6.80;;;2.55;;
81701;SDS011;71115;52.150;4.510;2023-10-19T02:38:00;11.10;;;2.83;;
81701;SDS011;71115;52.150;4.510;2023-10-19T02:40:29;5.00;;;2.42;;
81701;SDS011;71115;52.150;4.510;2023-10-19T02:42:59;11.57;;;2.45;;
81701;SDS011;71115;52.150;4.510;2023-10-19T02:45:27;4.80;;;2.17;;
81701;SDS011;71115;52.150;4.510;2023-10-19T02:47:56;3.80;;;1.67;;
81701;SDS011;71115;52.150;4.510;2023-10-19T02:50:23;7.68;;;2.72;;
81701;SDS011;71115;52.150;4.510;2023-10-19T02:52:51;6.35;;;2.47;;
81701;SDS011;71115;52.150;4.510;2023-10-19T02:55:18;7.00;;;1.70;;
81701;SDS011;71115;52.150;4.510;2023-10-19T02:57:48;5.00;;;1.85;;
81701;SDS011;71115;52.150;4.510;2023-10-19T03:02:44;5.20;;;2.05;;
81701;SDS011;71115;52.150;4.510;2023-10-19T03:05:10;6.07;;;1.48;;
81701;SDS011;71115;52.150;4.510;2023-10-19T03:07:40;3.80;;;1.45;;
81701;SDS011;71115;52.150;4.510;2023-10-19T03:10:08;8.00;;;1.70;;
81701;SDS011;71115;52.150;4.510;2023-10-19T03:12:48;6.70;;;1.27;;
81701;SDS011;71115;52.150;4.510;2023-10-19T03:15:14;2.58;;;0.98;;
81701;SDS011;71115;52.150;4.510;2023-10-19T03:17:41;2.65;;;0.93;;
81701;SDS011;71115;52.150;4.510;2023-10-19T03:20:07;4.85;;;1.50;;
81701;SDS011;71115;52.150;4.510;2023-10-19T03:22:35;2.97;;;1.02;;
81701;SDS011;71115;52.150;4.510;2023-10-19T03:25:03;5.80;;;1.50;;
81701;SDS011;71115;52.150;4.510;2023-10-19T03:27:48;5.07;;;1.58;;
81701;SDS011;71115;52.150;4.510;2023-10-19T03:30:14;5.03;;;1.40;;
81701;SDS011;71115;52.150;4.510;2023-10-19T03:32:43;5.65;;;1.48;;
81701;SDS011;71115;52.150;4.510;2023-10-19T03:35:09;2.22;;;1.15;;
81701;SDS011;71115;52.150;4.510;2023-10-19T03:37:40;6.40;;;1.20;;
81701;SDS011;71115;52.150;4.510;2023-10-19T03:42:34;7.03;;;1.40;;
81701;SDS011;71115;52.150;4.510;2023-10-19T03:45:06;4.70;;;1.33;;
81701;SDS011;71115;52.150;4.510;2023-10-19T03:47:38;4.82;;;1.25;;
81701;SDS011;71115;52.150;4.510;2023-10-19T03:50:05;6.20;;;1.38;;
81701;SDS011;71115;52.150;4.510;2023-10-19T03:52:39;2.35;;;1.50;;
81701;SDS011;71115;52.150;4.510;2023-10-19T03:55:06;4.22;;;1.50;;
81701;SDS011;71115;52.150;4.510;2023-10-19T03:57:36;3.00;;;1.45;;
81701;SDS011;71115;52.150;4.510;2023-10-19T04:00:14;4.45;;;1.35;;
81701;SDS011;71115;52.150;4.510;2023-10-19T04:02:44;3.35;;;1.30;;
81701;SDS011;71115;52.150;4.510;2023-10-19T04:05:11;5.40;;;1.73;;
81701;SDS011;71115;52.150;4.510;2023-10-19T04:07:46;8.13;;;1.70;;
81701;SDS011;71115;52.150;4.510;2023-10-19T04:10:12;7.78;;;1.50;;
81701;SDS011;71115;52.150;4.510;2023-10-19T04:12:54;6.97;;;1.50;;
81701;SDS011;71115;52.150;4.510;2023-10-19T04:15:21;1.95;;;1.08;;
81701;SDS011;71115;52.150;4.510;2023-10-19T04:17:47;5.32;;;1.50;;
81701;SDS011;71115;52.150;4.510;2023-10-19T04:22:43;7.82;;;1.95;;
81701;SDS011;71115;52.150;4.510;2023-10-19T04:25:12;3.63;;;1.27;;
81701;SDS011;71115;52.150;4.510;2023-10-19T04:27:39;5.15;;;1.25;;
81701;SDS011;71115;52.150;4.510;2023-10-19T04:30:07;7.75;;;1.42;;
81701;SDS011;71115;52.150;4.510;2023-10-19T04:32:41;3.53;;;1.23;;
81701;SDS011;71115;52.150;4.510;2023-10-19T04:35:07;2.58;;;1.20;;
81701;SDS011;71115;52.150;4.510;2023-10-19T04:37:38;6.55;;;1.58;;
81701;SDS011;71115;52.150;4.510;2023-10-19T04:40:10;5.93;;;1.40;;
81701;SDS011;71115;52.150;4.510;2023-10-19T04:42:39;4.43;;;1.17;;
81701;SDS011;71115;52.150;4.510;2023-10-19T04:45:05;3.72;;;1.40;;
81701;SDS011;71115;52.150;4.510;2023-10-19T04:47:32;6.80;;;1.35;;
81701;SDS011;71115;52.150;4.510;2023-10-19T04:50:02;7.05;;;1.55;;
81701;SDS011;71115;52.150;4.510;2023-10-19T04:52:28;8.27;;;2.03;;
81701;SDS011;71115;52.150;4.510;2023-10-19T04:54:54;6.50;;;2.22;;
81701;SDS011;71115;52.150;4.510;2023-10-19T04:57:20;2.65;;;1.02;;
81701;SDS011;71115;52.150;4.510;2023-10-19T04:59:46;4.07;;;2.47;;
81701;SDS011;71115;52.150;4.510;2023-10-19T05:02:13;9.57;;;1.45;;
81701;SDS011;71115;52.150;4.510;2023-10-19T05:04:39;5.93;;;1.40;;
81701;SDS011;71115;52.150;4.510;2023-10-19T05:07:06;3.30;;;0.95;;
81701;SDS011;71115;52.150;4.510;2023-10-19T05:09:34;4.32;;;1.60;;
81701;SDS011;71115;52.150;4.510;2023-10-19T05:12:03;3.97;;;1.52;;
81701;SDS011;71115;52.150;4.510;2023-10-19T05:14:34;3.10;;;0.98;;
81701;SDS011;71115;52.150;4.510;2023-10-19T05:17:01;7.10;;;1.50;;
81701;SDS011;71115;52.150;4.510;2023-10-19T05:19:30;4.50;;;1.35;;
81701;SDS011;71115;52.150;4.510;2023-10-19T05:21:56;7.13;;;1.48;;
81701;SDS011;71115;52.150;4.510;2023-10-19T05:24:22;4.32;;;1.38;;
81701;SDS011;71115;52.150;4.510;2023-10-19T05:26:48;1.98;;;0.70;;
81701;SDS011;71115;52.150;4.510;2023-10-19T05:29:14;1.13;;;0.52;;
81701;SDS011;71115;52.150;4.510;2023-10-19T05:31:40;7.38;;;1.08;;
81701;SDS011;71115;52.150;4.510;2023-10-19T05:34:06;1.92;;;0.80;;
81701;SDS011;71115;52.150;4.510;2023-10-19T05:36:33;4.60;;;1.02;;
81701;SDS011;71115;52.150;4.510;2023-10-19T05:38:59;10.55;;;2.00;;
81701;SDS011;71115;52.150;4.510;2023-10-19T05:41:25;3.13;;;0.88;;
81701;SDS011;71115;52.150;4.510;2023-10-19T05:43:51;5.57;;;1.40;;
81701;SDS011;71115;52.150;4.510;2023-10-19T05:46:18;8.98;;;2.63;;
81701;SDS011;71115;52.150;4.510;2023-10-19T05:48:47;5.97;;;2.58;;
81701;SDS011;71115;52.150;4.510;2023-10-19T05:51:17;6.30;;;1.38;;
81701;SDS011;71115;52.150;4.510;2023-10-19T05:53:44;2.30;;;1.08;;
81701;SDS011;71115;52.150;4.510;2023-10-19T05:56:10;5.05;;;1.45;;
81701;SDS011;71115;52.150;4.510;2023-10-19T05:58:36;2.85;;;0.98;;
81701;SDS011;71115;52.150;4.510;2023-10-19T06:01:02;7.57;;;1.20;;
81701;SDS011;71115;52.150;4.510;2023-10-19T06:03:28;5.40;;;1.48;;
81701;SDS011;71115;52.150;4.510;2023-10-19T06:05:55;4.32;;;1.35;;
81701;SDS011;71115;52.150;4.510;2023-10-19T06:08:24;6.18;;;1.85;;
81701;SDS011;71115;52.150;4.510;2023-10-19T06:10:52;8.23;;;1.60;;
81701;SDS011;71115;52.150;4.510;2023-10-19T06:13:18;9.07;;;1.70;;
81701;SDS011;71115;52.150;4.510;2023-10-19T06:18:11;6.45;;;1.63;;
81701;SDS011;71115;52.150;4.510;2023-10-19T06:20:42;8.07;;;1.98;;
81701;SDS011;71115;52.150;4.510;2023-10-19T06:23:09;6.75;;;1.65;;
81701;SDS011;71115;52.150;4.510;2023-10-19T06:25:36;3.08;;;1.25;;
81701;SDS011;71115;52.150;4.510;2023-10-19T06:30:29;10.68;;;1.70;;
81701;SDS011;71115;52.150;4.510;2023-10-19T06:32:56;4.88;;;1.75;;
81701;SDS011;71115;52.150;4.510;2023-10-19T06:35:26;7.57;;;3.05;;
81701;SDS011;71115;52.150;4.510;2023-10-19T06:37:52;7.82;;;1.50;;
81701;SDS011;71115;52.150;4.510;2023-10-19T06:40:20;10.50;;;1.67;;
81701;SDS011;71115;52.150;4.510;2023-10-19T06:42:47;8.35;;;2.00;;
81701;SDS011;71115;52.150;4.510;2023-10-19T06:45:14;2.30;;;1.00;;
81701;SDS011;71115;52.150;4.510;2023-10-19T06:47:41;4.72;;;1.27;;
81701;SDS011;71115;52.150;4.510;2023-10-19T06:50:08;7.68;;;0.65;;
81701;SDS011;71115;52.150;4.510;2023-10-19T06:52:36;5.88;;;1.40;;
81701;SDS011;71115;52.150;4.510;2023-10-19T06:55:05;3.85;;;1.42;;
81701;SDS011;71115;52.150;4.510;2023-10-19T06:58:06;6.20;;;1.20;;
81701;SDS011;71115;52.150;4.510;2023-10-19T07:00:34;11.18;;;1.63;;
81701;SDS011;71115;52.150;4.510;2023-10-19T07:03:07;2.15;;;0.73;;
81701;SDS011;71115;52.150;4.510;2023-10-19T07:05:33;5.22;;;0.75;;
81701;SDS011;71115;52.150;4.510;2023-10-19T07:07:59;2.78;;;0.73;;
81701;SDS011;71115;52.150;4.510;2023-10-19T07:10:27;8.25;;;1.73;;
81701;SDS011;71115;52.150;4.510;2023-10-19T07:12:53;10.00;;;1.65;;
81701;SDS011;71115;52.150;4.510;2023-10-19T07:15:20;9.85;;;1.85;;
81701;SDS011;71115;52.150;4.510;2023-10-19T07:17:47;3.92;;;0.82;;
81701;SDS011;71115;52.150;4.510;2023-10-19T07:20:14;7.63;;;1.45;;
81701;SDS011;71115;52.150;4.510;2023-10-19T07:23:01;4.50;;;1.30;;
81701;SDS011;71115;52.150;4.510;2023-10-19T07:25:50;6.80;;;1.40;;
81701;SDS011;71115;52.150;4.510;2023-10-19T07:28:21;1.98;;;0.82;;
81701;SDS011;71115;52.150;4.510;2023-10-19T07:30:47;10.90;;;2.72;;
81701;SDS011;71115;52.150;4.510;2023-10-19T07:33:16;9.00;;;2.35;;
81701;SDS011;71115;52.150;4.510;2023-10-19T07:35:42;5.35;;;1.63;;
81701;SDS011;71115;52.150;4.510;2023-10-19T07:38:09;4.22;;;1.55;;
81701;SDS011;71115;52.150;4.510;2023-10-19T07:40:35;5.32;;;1.60;;
81701;SDS011;71115;52.150;4.510;2023-10-19T07:43:04;6.65;;;1.50;;
81701;SDS011;71115;52.150;4.510;2023-10-19T07:45:31;10.93;;;1.75;;
81701;SDS011;71115;52.150;4.510;2023-10-19T07:48:02;8.73;;;1.60;;
81701;SDS011;71115;52.150;4.510;2023-10-19T07:50:35;5.07;;;1.48;;
81701;SDS011;71115;52.150;4.510;2023-10-19T07:53:01;4.75;;;1.67;;
81701;SDS011;71115;52.150;4.510;2023-10-19T07:55:27;4.32;;;1.67;;
81701;SDS011;71115;52.150;4.510;2023-10-19T07:57:53;10.65;;;2.17;;
81701;SDS011;71115;52.150;4.510;2023-10-19T08:00:20;8.38;;;1.38;;
81701;SDS011;71115;52.150;4.510;2023-10-19T08:02:46;6.20;;;1.23;;
81701;SDS011;71115;52.150;4.510;2023-10-19T08:05:13;8.35;;;1.98;;
81701;SDS011;71115;52.150;4.510;2023-10-19T08:07:39;8.45;;;2.38;;
81701;SDS011;71115;52.150;4.510;2023-10-19T08:10:08;8.90;;;2.00;;
81701;SDS011;71115;52.150;4.510;2023-10-19T08:12:35;10.43;;;1.90;;
81701;SDS011;71115;52.150;4.510;2023-10-19T08:15:01;3.97;;;1.45;;
81701;SDS011;71115;52.150;4.510;2023-10-19T08:17:28;10.82;;;1.67;;
81701;SDS011;71115;52.150;4.510;2023-10-19T08:19:55;9.05;;;1.42;;
81701;SDS011;71115;52.150;4.510;2023-10-19T08:22:23;8.57;;;1.88;;
81701;SDS011;71115;52.150;4.510;2023-10-19T08:24:49;8.52;;;2.28;;
81701;SDS011;71115;52.150;4.510;2023-10-19T08:27:16;4.03;;;1.52;;
81701;SDS011;71115;52.150;4.510;2023-10-19T08:29:42;6.22;;;1.30;;
81701;SDS011;71115;52.150;4.510;2023-10-19T08:32:08;11.73;;;3.55;;
81701;SDS011;71115;52.150;4.510;2023-10-19T08:34:35;5.10;;;1.85;;
81701;SDS011;71115;52.150;4.510;2023-10-19T08:37:02;6.00;;;1.50;;
81701;SDS011;71115;52.150;4.510;2023-10-19T08:39:29;10.02;;;1.95;;
81701;SDS011;71115;52.150;4.510;2023-10-19T08:42:04;7.50;;;1.85;;
81701;SDS011;71115;52.150;4.510;2023-10-19T08:44:31;12.35;;;3.83;;
81701;SDS011;71115;52.150;4.510;2023-10-19T08:49:24;5.47;;;2.00;;
81701;SDS011;71115;52.150;4.510;2023-10-19T08:51:52;10.68;;;1.90;;
81701;SDS011;71115;52.150;4.510;2023-10-19T08:54:19;4.30;;;1.83;;
81701;SDS011;71115;52.150;4.510;2023-10-19T08:56:45;4.03;;;1.52;;
81701;SDS011;71115;52.150;4.510;2023-10-19T08:59:12;5.18;;;1.98;;
81701;SDS011;71115;52.150;4.510;2023-10-19T09:01:42;8.32;;;1.88;;
81701;SDS011;71115;52.150;4.510;2023-10-19T09:04:11;5.43;;;2.13;;
81701;SDS011;71115;52.150;4.510;2023-10-19T09:06:38;5.45;;;1.23;;
81701;SDS011;71115;52.150;4.510;2023-10-19T09:09:08;4.30;;;1.42;;
81701;SDS011;71115;52.150;4.510;2023-10-19T09:11:34;2.83;;;1.40;;
81701;SDS011;71115;52.150;4.510;2023-10-19T09:14:00;5.80;;;1.45;;
81701;SDS011;71115;52.150;4.510;2023-10-19T09:16:29;4.63;;;1.50;;
81701;SDS011;71115;52.150;4.510;2023-10-19T09:18:56;7.28;;;1.80;;
81701;SDS011;71115;52.150;4.510;2023-10-19T09:21:22;6.10;;;1.45;;
81701;SDS011;71115;52.150;4.510;2023-10-19T09:23:52;6.10;;;1.80;;
81701;SDS011;71115;52.150;4.510;2023-10-19T09:26:19;3.92;;;0.70;;
81701;SDS011;71115;52.150;4.510;2023-10-19T09:28:47;7.88;;;2.00;;
81701;SDS011;71115;52.150;4.510;2023-10-19T09:31:13;7.45;;;2.42;;
81701;SDS011;71115;52.150;4.510;2023-10-19T09:33:41;13.70;;;2.30;;
81701;SDS011;71115;52.150;4.510;2023-10-19T09:36:08;3.50;;;1.30;;
81701;SDS011;71115;52.150;4.510;2023-10-19T09:38:38;5.68;;;1.60;;
81701;SDS011;71115;52.150;4.510;2023-10-19T09:41:06;3.97;;;1.17;;
81701;SDS011;71115;52.150;4.510;2023-10-19T09:43:35;6.85;;;2.35;;
81701;SDS011;71115;52.150;4.510;2023-10-19T09:46:07;8.13;;;1.88;;
81701;SDS011;71115;52.150;4.510;2023-10-19T09:48:36;9.82;;;2.45;;
81701;SDS011;71115;52.150;4.510;2023-10-19T09:51:04;13.07;;;2.20;;
81701;SDS011;71115;52.150;4.510;2023-10-19T09:53:33;10.00;;;2.15;;
81701;SDS011;71115;52.150;4.510;2023-10-19T09:56:03;5.10;;;1.70;;
81701;SDS011;71115;52.150;4.510;2023-10-19T09:58:33;9.43;;;1.63;;
81701;SDS011;71115;52.150;4.510;2023-10-19T10:01:00;10.93;;;2.58;;
81701;SDS011;71115;52.150;4.510;2023-10-19T10:06:15;3.55;;;1.40;;
81701;SDS011;71115;52.150;4.510;2023-10-19T10:08:45;11.07;;;2.90;;
81701;SDS011;71115;52.150;4.510;2023-10-19T10:13:43;7.78;;;2.05;;
81701;SDS011;71115;52.150;4.510;2023-10-19T10:16:11;9.27;;;2.67;;
81701;SDS011;71115;52.150;4.510;2023-10-19T10:18:39;4.57;;;2.63;;
81701;SDS011;71115;52.150;4.510;2023-10-19T10:23:37;8.75;;;1.45;;
81701;SDS011;71115;52.150;4.510;2023-10-19T10:26:05;6.15;;;1.30;;
81701;SDS011;71115;52.150;4.510;2023-10-19T10:28:33;11.52;;;2.38;;
81701;SDS011;71115;52.150;4.510;2023-10-19T10:33:39;5.30;;;1.80;;
81701;SDS011;71115;52.150;4.510;2023-10-19T10:36:06;13.25;;;3.78;;
81701;SDS011;71115;52.150;4.510;2023-10-19T10:38:35;14.27;;;2.45;;
81701;SDS011;71115;52.150;4.510;2023-10-19T10:41:01;18.30;;;3.63;;
81701;SDS011;71115;52.150;4.510;2023-10-19T10:43:27;4.50;;;1.80;;
81701;SDS011;71115;52.150;4.510;2023-10-19T10:46:05;5.10;;;1.80;;
81701;SDS011;71115;52.150;4.510;2023-10-19T10:48:40;7.20;;;1.58;;
81701;SDS011;71115;52.150;4.510;2023-10-19T10:51:19;10.85;;;2.55;;
81701;SDS011;71115;52.150;4.510;2023-10-19T10:53:47;6.20;;;1.45;;
81701;SDS011;71115;52.150;4.510;2023-10-19T10:56:13;9.40;;;2.28;;
81701;SDS011;71115;52.150;4.510;2023-10-19T10:58:39;5.05;;;2.10;;
81701;SDS011;71115;52.150;4.510;2023-10-19T11:01:09;5.90;;;2.08;;
81701;SDS011;71115;52.150;4.510;2023-10-19T11:03:35;8.23;;;1.77;;
81701;SDS011;71115;52.150;4.510;2023-10-19T11:08:34;7.35;;;2.13;;
81701;SDS011;71115;52.150;4.510;2023-10-19T11:11:20;12.05;;;2.35;;
81701;SDS011;71115;52.150;4.510;2023-10-19T11:13:49;8.07;;;2.47;;
81701;SDS011;71115;52.150;4.510;2023-10-19T11:16:21;8.57;;;3.17;;
81701;SDS011;71115;52.150;4.510;2023-10-19T11:18:50;12.52;;;2.42;;
81701;SDS011;71115;52.150;4.510;2023-10-19T11:21:24;10.57;;;1.70;;
81701;SDS011;71115;52.150;4.510;2023-10-19T11:23:50;14.25;;;2.20;;
81701;SDS011;71115;52.150;4.510;2023-10-19T11:26:20;10.15;;;1.95;;
81701;SDS011;71115;52.150;4.510;2023-10-19T11:28:46;5.80;;;1.67;;
81701;SDS011;71115;52.150;4.510;2023-10-19T11:33:47;9.38;;;2.50;;
81701;SDS011;71115;52.150;4.510;2023-10-19T11:36:14;9.73;;;1.98;;
81701;SDS011;71115;52.150;4.510;2023-10-19T11:38:41;11.13;;;1.70;;
81701;SDS011;71115;52.150;4.510;2023-10-19T11:41:07;9.00;;;2.10;;
81701;SDS011;71115;52.150;4.510;2023-10-19T11:43:34;6.55;;;2.20;;
81701;SDS011;71115;52.150;4.510;2023-10-19T11:46:00;12.63;;;2.20;;
81701;SDS011;71115;52.150;4.510;2023-10-19T11:48:26;5.47;;;1.83;;
81701;SDS011;71115;52.150;4.510;2023-10-19T11:50:52;11.10;;;2.38;;
81701;SDS011;71115;52.150;4.510;2023-10-19T11:53:18;4.60;;;1.15;;
81701;SDS011;71115;52.150;4.510;2023-10-19T11:58:13;9.82;;;2.03;;
81701;SDS011;71115;52.150;4.510;2023-10-19T12:00:39;7.38;;;2.03;;
81701;SDS011;71115;52.150;4.510;2023-10-19T12:03:08;6.10;;;1.85;;
81701;SDS011;71115;52.150;4.510;2023-10-19T12:05:35;8.32;;;1.63;;
81701;SDS011;71115;52.150;4.510;2023-10-19T12:08:02;5.53;;;1.35;;
81701;SDS011;71115;52.150;4.510;2023-10-19T12:10:28;7.03;;;2.00;;
81701;SDS011;71115;52.150;4.510;2023-10-19T12:13:00;7.63;;;2.05;;
81701;SDS011;71115;52.150;4.510;2023-10-19T12:17:52;11.35;;;1.55;;
81701;SDS011;71115;52.150;4.510;2023-10-19T12:20:19;7.90;;;2.10;;
81701;SDS011;71115;52.150;4.510;2023-10-19T12:22:47;11.00;;;1.85;;
81701;SDS011;71115;52.150;4.510;2023-10-19T12:25:13;3.45;;;1.30;;
81701;SDS011;71115;52.150;4.510;2023-10-19T12:30:05;3.90;;;1.42;;
81701;SDS011;71115;52.150;4.510;2023-10-19T12:32:42;4.53;;;1.50;;
81701;SDS011;71115;52.150;4.510;2023-10-19T12:37:37;9.73;;;2.65;;
81701;SDS011;71115;52.150;4.510;2023-10-19T12:40:14;7.10;;;1.52;;
81701;SDS011;71115;52.150;4.510;2023-10-19T12:42:53;9.57;;;1.60;;
81701;SDS011;71115;52.150;4.510;2023-10-19T12:45:22;8.20;;;2.13;;
81701;SDS011;71115;52.150;4.510;2023-10-19T12:47:48;9.40;;;2.80;;
81701;SDS011;71115;52.150;4.510;2023-10-19T12:50:14;10.30;;;2.33;;
81701;SDS011;71115;52.150;4.510;2023-10-19T12:52:41;7.00;;;3.00;;
81701;SDS011;71115;52.150;4.510;2023-10-19T12:55:10;12.00;;;2.70;;
81701;SDS011;71115;52.150;4.510;2023-10-19T12:57:36;7.03;;;1.10;;
81701;SDS011;71115;52.150;4.510;2023-10-19T13:00:02;13.15;;;2.22;;
81701;SDS011;71115;52.150;4.510;2023-10-19T13:02:48;9.38;;;1.92;;
81701;SDS011;71115;52.150;4.510;2023-10-19T13:05:14;7.68;;;2.20;;
81701;SDS011;71115;52.150;4.510;2023-10-19T13:07:43;12.02;;;1.83;;
81701;SDS011;71115;52.150;4.510;2023-10-19T13:10:09;6.53;;;1.70;;
81701;SDS011;71115;52.150;4.510;2023-10-19T13:12:36;10.60;;;2.30;;
81701;SDS011;71115;52.150;4.510;2023-10-19T13:15:03;14.82;;;1.63;;
81701;SDS011;71115;52.150;4.510;2023-10-19T13:17:32;10.60;;;3.15;;
81701;SDS011;71115;52.150;4.510;2023-10-19T13:20:00;8.45;;;2.35;;
81701;SDS011;71115;52.150;4.510;2023-10-19T13:22:31;3.28;;;1.00;;
81701;SDS011;71115;52.150;4.510;2023-10-19T13:24:58;7.32;;;2.00;;
81701;SDS011;71115;52.150;4.510;2023-10-19T13:27:24;26.40;;;2.42;;
81701;SDS011;71115;52.150;4.510;2023-10-19T13:29:52;13.57;;;2.30;;
81701;SDS011;71115;52.150;4.510;2023-10-19T13:32:18;12.23;;;1.60;;
81701;SDS011;71115;52.150;4.510;2023-10-19T13:34:44;8.15;;;2.22;;
81701;SDS011;71115;52.150;4.510;2023-10-19T13:37:10;8.60;;;2.65;;
81701;SDS011;71115;52.150;4.510;2023-10-19T13:39:36;9.27;;;2.30;;
81701;SDS011;71115;52.150;4.510;2023-10-19T13:42:04;6.90;;;1.48;;
81701;SDS011;71115;52.150;4.510;2023-10-19T13:44:31;9.65;;;2.08;;
81701;SDS011;71115;52.150;4.510;2023-10-19T13:46:57;9.23;;;2.03;;
81701;SDS011;71115;52.150;4.510;2023-10-19T13:49:24;12.23;;;2.22;;
81701;SDS011;71115;52.150;4.510;2023-10-19T13:51:50;6.93;;;1.17;;
81701;SDS011;71115;52.150;4.510;2023-10-19T13:54:17;4.95;;;1.38;;
81701;SDS011;71115;52.150;4.510;2023-10-19T13:56:43;8.82;;;2.25;;
81701;SDS011;71115;52.150;4.510;2023-10-19T13:59:10;5.15;;;1.77;;
81701;SDS011;71115;52.150;4.510;2023-10-19T14:01:37;17.20;;;2.17;;
81701;SDS011;71115;52.150;4.510;2023-10-19T14:04:03;3.60;;;1.48;;
81701;SDS011;71115;52.150;4.510;2023-10-19T14:06:29;8.55;;;1.50;;
81701;SDS011;71115;52.150;4.510;2023-10-19T14:08:56;4.07;;;1.20;;
81701;SDS011;71115;52.150;4.510;2023-10-19T14:11:22;9.07;;;1.60;;
81701;SDS011;71115;52.150;4.510;2023-10-19T14:13:48;17.17;;;2.53;;
81701;SDS011;71115;52.150;4.510;2023-10-19T14:16:17;16.83;;;3.08;;
81701;SDS011;71115;52.150;4.510;2023-10-19T14:18:43;5.93;;;2.28;;
81701;SDS011;71115;52.150;4.510;2023-10-19T14:21:16;6.00;;;2.10;;
81701;SDS011;71115;52.150;4.510;2023-10-19T14:23:43;7.18;;;2.10;;
81701;SDS011;71115;52.150;4.510;2023-10-19T14:26:10;10.05;;;2.53;;
81701;SDS011;71115;52.150;4.510;2023-10-19T14:28:37;5.70;;;1.88;;
81701;SDS011;71115;52.150;4.510;2023-10-19T14:31:03;8.93;;;2.80;;
81701;SDS011;71115;52.150;4.510;2023-10-19T14:35:55;4.32;;;2.53;;
81701;SDS011;71115;52.150;4.510;2023-10-19T14:38:21;7.63;;;2.40;;
81701;SDS011;71115;52.150;4.510;2023-10-19T14:40:50;9.18;;;2.25;;
81701;SDS011;71115;52.150;4.510;2023-10-19T14:43:17;10.85;;;2.83;;
81701;SDS011;71115;52.150;4.510;2023-10-19T14:45:43;10.63;;;2.40;;
81701;SDS011;71115;52.150;4.510;2023-10-19T14:48:09;7.03;;;1.95;;
81701;SDS011;71115;52.150;4.510;2023-10-19T14:55:33;6.10;;;2.70;;
81701;SDS011;71115;52.150;4.510;2023-10-19T14:57:59;5.63;;;1.55;;
81701;SDS011;71115;52.150;4.510;2023-10-19T15:00:26;6.80;;;1.65;;
81701;SDS011;71115;52.150;4.510;2023-10-19T15:03:09;5.03;;;2.05;;
81701;SDS011;71115;52.150;4.510;2023-10-19T15:05:36;9.82;;;1.95;;
81701;SDS011;71115;52.150;4.510;2023-10-19T15:08:05;8.00;;;2.45;;
81701;SDS011;71115;52.150;4.510;2023-10-19T15:10:32;8.32;;;1.73;;
81701;SDS011;71115;52.150;4.510;2023-10-19T15:12:58;5.95;;;2.42;;
81701;SDS011;71115;52.150;4.510;2023-10-19T15:15:28;12.07;;;2.15;;
81701;SDS011;71115;52.150;4.510;2023-10-19T15:17:54;8.52;;;2.53;;
81701;SDS011;71115;52.150;4.510;2023-10-19T15:20:21;3.15;;;1.52;;
81701;SDS011;71115;52.150;4.510;2023-10-19T15:22:47;11.07;;;3.15;;
81701;SDS011;71115;52.150;4.510;2023-10-19T15:25:14;6.53;;;2.10;;
81701;SDS011;71115;52.150;4.510;2023-10-19T15:27:44;3.22;;;1.48;;
81701;SDS011;71115;52.150;4.510;2023-10-19T15:30:11;9.07;;;2.65;;
81701;SDS011;71115;52.150;4.510;2023-10-19T15:32:40;13.02;;;2.40;;
81701;SDS011;71115;52.150;4.510;2023-10-19T15:35:07;6.05;;;1.88;;
81701;SDS011;71115;52.150;4.510;2023-10-19T15:37:34;6.60;;;1.92;;
81701;SDS011;71115;52.150;4.510;2023-10-19T15:40:01;9.13;;;2.30;;
81701;SDS011;71115;52.150;4.510;2023-10-19T15:42:28;10.00;;;3.05;;